Beaver Dam, WI (53916)

2:37 PM CST on January 17, 2017 (GMT -0600)
Georgetown Heights | | Change Station
Active Advisory: Special Statement

Elev 902 ft 43.46 °N, 88.81 °W | Updated 31 seconds ago

Fog
Fog
34.0 °F
Feels Like 34 °F
N
2.0
Wind Variable Wind from WNW

Today
High -- | Low -- °F
--% Chance of Precip.
Yesterday
High -- | Low -- °F
Precip. -- in
Pressure 29.85 in
Visibility 0.5 miles
Clouds Overcast 300 ft
Windchill 34 °F
Dew Point 32 °F
Humidity 93%
Rainfall 0.18 in
Snow Depth Not available.
7:23 AM 4:47 PM
Waning Gibbous, 70% visible
METAR KUNU 172015Z AUTO 32006KT 1/2SM FG OVC003 00/00 A2985 RMK AO2 T00030002
Pressure 29.85 in
Visibility 0.5 miles
Clouds Overcast 300 ft
Windchill 34 °F
Dew Point 32 °F
Humidity 93%
Rainfall 0.18 in
Snow Depth Not available.
7:23 AM 4:47 PM
Waning Gibbous, 70% visible
METAR KUNU 172015Z AUTO 32006KT 1/2SM FG OVC003 00/00 A2985 RMK AO2 T00030002

Get Your Daily Forecast Email!

Thanks for signing up!

Be on the lookout for a verification email in your inbox.

You'll start receiving the daily forecast at 8 AM.

×

10-Day Weather Forecast

Almanac

Astronomy

Jan. 17, 2017 Rise Set
Actual Time
Civil Twilight
Nautical Twilight
Astronomical Twilight
Moon
Length of Visible Light
Length of Day
Tomorrow will be .
, % of the Moon is Illuminated

Today's Extremes

State Highs State Lows

Community

WunderPhotos

Upload Photos

1,962,540 photos uploaded!

WunderBlog® & News

Nearby

Air Quality

  Air Quality AQ Index Pollutant
Not available.

Snow Depth

Station Depth Elevation

Earthquake Activity

City Distance Mag. Time & Date
Minimum magnitude displayed is 2.5.

Coastal Water Temperatures

Place Temperature

Stations

Nearby Weather Stations

Station Location Temp. Windchill Dew Point Humidity Wind Precip. Elev Updated Type
                   

Watches & Warnings

Special Statement
Issued: 12:10 PM CST Jan. 17, 2017 – National Weather Service

... Continue to use caution if traveling this afternoon...

Temperatures will hover above freezing for the rest of the day.
Treated roads may still have slippery spots... especially on
secondary roads. Continue to use caution if traveling today.


Mrc

1210 PM CST Tue Jan 17 2017

... Continue to use caution if traveling this afternoon...

Temperatures will hover above freezing for the rest of the day.
Treated roads may still have slippery spots... especially on
secondary roads. Continue to use caution if traveling today.


Mrc


1210 PM CST Tue Jan 17 2017

... Continue to use caution if traveling this afternoon...

Temperatures will hover above freezing for the rest of the day.
Treated roads may still have slippery spots... especially on
secondary roads. Continue to use caution if traveling today.


Mrc